sensor_id;sensor_type;location;lat;lon;timestamp;P1;durP1;ratioP1;P2;durP2;ratioP2
64208;SDS011;50527;52.414;13.226;2022-09-09T00:01:00;3.72;;;1.48;;
64208;SDS011;50527;52.414;13.226;2022-09-09T00:09:24;4.07;;;1.50;;
64208;SDS011;50527;52.414;13.226;2022-09-09T00:11:54;2.20;;;1.50;;
64208;SDS011;50527;52.414;13.226;2022-09-09T00:22:38;1.92;;;1.38;;
64208;SDS011;50527;52.414;13.226;2022-09-09T00:25:12;5.88;;;1.48;;
64208;SDS011;50527;52.414;13.226;2022-09-09T00:30:20;4.70;;;1.33;;
64208;SDS011;50527;52.414;13.226;2022-09-09T00:32:48;2.60;;;1.30;;
64208;SDS011;50527;52.414;13.226;2022-09-09T00:35:17;4.00;;;1.33;;
64208;SDS011;50527;52.414;13.226;2022-09-09T00:37:43;2.72;;;1.40;;
64208;SDS011;50527;52.414;13.226;2022-09-09T00:40:22;1.95;;;1.20;;
64208;SDS011;50527;52.414;13.226;2022-09-09T00:43:05;3.42;;;1.48;;
64208;SDS011;50527;52.414;13.226;2022-09-09T00:45:51;2.90;;;1.30;;
64208;SDS011;50527;52.414;13.226;2022-09-09T00:48:35;1.90;;;1.10;;
64208;SDS011;50527;52.414;13.226;2022-09-09T00:51:15;1.70;;;1.20;;
64208;SDS011;50527;52.414;13.226;2022-09-09T00:59:52;3.72;;;1.35;;
64208;SDS011;50527;52.414;13.226;2022-09-09T01:02:29;2.33;;;1.30;;
64208;SDS011;50527;52.414;13.226;2022-09-09T01:05:06;2.35;;;1.35;;
64208;SDS011;50527;52.414;13.226;2022-09-09T01:07:37;2.53;;;1.40;;
64208;SDS011;50527;52.414;13.226;2022-09-09T01:10:15;2.10;;;1.35;;
64208;SDS011;50527;52.414;13.226;2022-09-09T01:12:51;3.28;;;1.33;;
64208;SDS011;50527;52.414;13.226;2022-09-09T01:15:21;2.92;;;1.40;;
64208;SDS011;50527;52.414;13.226;2022-09-09T01:17:53;3.67;;;1.35;;
64208;SDS011;50527;52.414;13.226;2022-09-09T01:20:37;4.60;;;1.27;;
64208;SDS011;50527;52.414;13.226;2022-09-09T01:28:53;2.90;;;1.20;;
64208;SDS011;50527;52.414;13.226;2022-09-09T01:31:38;3.38;;;1.23;;
64208;SDS011;50527;52.414;13.226;2022-09-09T01:34:18;3.13;;;1.20;;
64208;SDS011;50527;52.414;13.226;2022-09-09T01:36:45;1.92;;;1.10;;
64208;SDS011;50527;52.414;13.226;2022-09-09T01:39:18;2.97;;;1.30;;
64208;SDS011;50527;52.414;13.226;2022-09-09T01:41:45;2.53;;;1.40;;
64208;SDS011;50527;52.414;13.226;2022-09-09T01:44:10;3.95;;;1.42;;
64208;SDS011;50527;52.414;13.226;2022-09-09T01:46:37;2.50;;;1.30;;
64208;SDS011;50527;52.414;13.226;2022-09-09T01:49:03;2.33;;;1.17;;
64208;SDS011;50527;52.414;13.226;2022-09-09T01:51:32;2.67;;;1.13;;
64208;SDS011;50527;52.414;13.226;2022-09-09T01:53:58;1.90;;;1.20;;
64208;SDS011;50527;52.414;13.226;2022-09-09T01:59:10;2.90;;;1.20;;
64208;SDS011;50527;52.414;13.226;2022-09-09T02:02:06;1.73;;;1.15;;
64208;SDS011;50527;52.414;13.226;2022-09-09T02:04:41;5.43;;;1.20;;
64208;SDS011;50527;52.414;13.226;2022-09-09T02:07:17;2.03;;;1.30;;
64208;SDS011;50527;52.414;13.226;2022-09-09T02:09:45;3.13;;;1.60;;
64208;SDS011;50527;52.414;13.226;2022-09-09T02:12:16;3.85;;;1.45;;
64208;SDS011;50527;52.414;13.226;2022-09-09T02:14:47;2.78;;;1.20;;
64208;SDS011;50527;52.414;13.226;2022-09-09T02:17:18;2.50;;;1.30;;
64208;SDS011;50527;52.414;13.226;2022-09-09T02:19:57;2.38;;;1.15;;
64208;SDS011;50527;52.414;13.226;2022-09-09T02:22:37;3.15;;;1.60;;
64208;SDS011;50527;52.414;13.226;2022-09-09T02:25:07;3.67;;;1.42;;
64208;SDS011;50527;52.414;13.226;2022-09-09T02:27:34;2.33;;;1.27;;
64208;SDS011;50527;52.414;13.226;2022-09-09T02:30:00;3.00;;;1.52;;
64208;SDS011;50527;52.414;13.226;2022-09-09T02:32:28;5.55;;;1.40;;
64208;SDS011;50527;52.414;13.226;2022-09-09T02:35:17;2.08;;;1.23;;
64208;SDS011;50527;52.414;13.226;2022-09-09T02:37:47;4.30;;;1.30;;
64208;SDS011;50527;52.414;13.226;2022-09-09T02:40:15;3.72;;;1.30;;
64208;SDS011;50527;52.414;13.226;2022-09-09T02:42:44;4.13;;;1.40;;
64208;SDS011;50527;52.414;13.226;2022-09-09T02:45:12;4.72;;;1.50;;
64208;SDS011;50527;52.414;13.226;2022-09-09T02:50:33;1.98;;;1.30;;
64208;SDS011;50527;52.414;13.226;2022-09-09T02:55:31;2.83;;;1.48;;
64208;SDS011;50527;52.414;13.226;2022-09-09T02:58:03;2.50;;;1.60;;
64208;SDS011;50527;52.414;13.226;2022-09-09T03:00:32;2.53;;;1.60;;
64208;SDS011;50527;52.414;13.226;2022-09-09T03:02:58;2.97;;;1.50;;
64208;SDS011;50527;52.414;13.226;2022-09-09T03:05:24;2.65;;;1.50;;
64208;SDS011;50527;52.414;13.226;2022-09-09T03:07:51;3.25;;;1.30;;
64208;SDS011;50527;52.414;13.226;2022-09-09T03:10:16;2.25;;;1.30;;
64208;SDS011;50527;52.414;13.226;2022-09-09T03:12:42;2.08;;;1.30;;
64208;SDS011;50527;52.414;13.226;2022-09-09T03:15:08;2.85;;;1.35;;
64208;SDS011;50527;52.414;13.226;2022-09-09T03:17:34;3.67;;;1.58;;
64208;SDS011;50527;52.414;13.226;2022-09-09T03:20:01;3.63;;;1.50;;
64208;SDS011;50527;52.414;13.226;2022-09-09T03:22:27;4.05;;;1.50;;
64208;SDS011;50527;52.414;13.226;2022-09-09T03:24:53;6.32;;;1.60;;
64208;SDS011;50527;52.414;13.226;2022-09-09T03:27:18;2.72;;;1.55;;
64208;SDS011;50527;52.414;13.226;2022-09-09T03:29:44;3.30;;;1.40;;
64208;SDS011;50527;52.414;13.226;2022-09-09T03:32:10;2.95;;;1.15;;
64208;SDS011;50527;52.414;13.226;2022-09-09T03:34:37;4.20;;;1.27;;
64208;SDS011;50527;52.414;13.226;2022-09-09T03:37:06;3.33;;;1.48;;
64208;SDS011;50527;52.414;13.226;2022-09-09T03:39:31;2.85;;;1.30;;
64208;SDS011;50527;52.414;13.226;2022-09-09T03:41:57;5.20;;;1.48;;
64208;SDS011;50527;52.414;13.226;2022-09-09T03:44:23;3.15;;;1.48;;
64208;SDS011;50527;52.414;13.226;2022-09-09T03:46:48;2.38;;;1.38;;
64208;SDS011;50527;52.414;13.226;2022-09-09T03:49:14;4.35;;;1.38;;
64208;SDS011;50527;52.414;13.226;2022-09-09T03:51:40;3.13;;;1.60;;
64208;SDS011;50527;52.414;13.226;2022-09-09T03:54:06;4.07;;;1.40;;
64208;SDS011;50527;52.414;13.226;2022-09-09T03:56:34;2.53;;;1.42;;
64208;SDS011;50527;52.414;13.226;2022-09-09T03:59:01;2.63;;;1.50;;
64208;SDS011;50527;52.414;13.226;2022-09-09T04:01:27;2.67;;;1.33;;
64208;SDS011;50527;52.414;13.226;2022-09-09T04:03:53;3.50;;;1.35;;
64208;SDS011;50527;52.414;13.226;2022-09-09T04:06:20;3.08;;;1.38;;
64208;SDS011;50527;52.414;13.226;2022-09-09T04:08:46;3.45;;;1.67;;
64208;SDS011;50527;52.414;13.226;2022-09-09T04:11:13;2.38;;;1.20;;
64208;SDS011;50527;52.414;13.226;2022-09-09T04:13:41;6.35;;;1.55;;
64208;SDS011;50527;52.414;13.226;2022-09-09T04:16:08;3.17;;;1.60;;
64208;SDS011;50527;52.414;13.226;2022-09-09T04:18:35;2.10;;;1.13;;
64208;SDS011;50527;52.414;13.226;2022-09-09T04:21:01;2.78;;;1.30;;
64208;SDS011;50527;52.414;13.226;2022-09-09T04:23:27;2.65;;;1.35;;
64208;SDS011;50527;52.414;13.226;2022-09-09T04:25:57;2.67;;;1.40;;
64208;SDS011;50527;52.414;13.226;2022-09-09T04:28:24;5.60;;;1.48;;
64208;SDS011;50527;52.414;13.226;2022-09-09T04:30:51;3.13;;;1.20;;
64208;SDS011;50527;52.414;13.226;2022-09-09T04:33:17;4.18;;;1.25;;
64208;SDS011;50527;52.414;13.226;2022-09-09T04:35:47;3.75;;;1.20;;
64208;SDS011;50527;52.414;13.226;2022-09-09T04:38:14;1.42;;;0.90;;
64208;SDS011;50527;52.414;13.226;2022-09-09T04:40:46;3.72;;;1.35;;
64208;SDS011;50527;52.414;13.226;2022-09-09T04:43:12;2.00;;;1.17;;
64208;SDS011;50527;52.414;13.226;2022-09-09T04:45:39;4.78;;;1.58;;
64208;SDS011;50527;52.414;13.226;2022-09-09T04:48:05;2.20;;;1.40;;
64208;SDS011;50527;52.414;13.226;2022-09-09T04:50:31;3.50;;;1.50;;
64208;SDS011;50527;52.414;13.226;2022-09-09T04:52:59;2.50;;;1.10;;
64208;SDS011;50527;52.414;13.226;2022-09-09T04:55:25;2.38;;;1.50;;
64208;SDS011;50527;52.414;13.226;2022-09-09T04:57:51;2.55;;;1.27;;
64208;SDS011;50527;52.414;13.226;2022-09-09T05:00:16;2.80;;;1.33;;
64208;SDS011;50527;52.414;13.226;2022-09-09T05:02:42;3.85;;;1.60;;
64208;SDS011;50527;52.414;13.226;2022-09-09T05:05:08;3.10;;;1.50;;
64208;SDS011;50527;52.414;13.226;2022-09-09T05:07:33;2.47;;;1.20;;
64208;SDS011;50527;52.414;13.226;2022-09-09T05:09:59;1.90;;;1.13;;
64208;SDS011;50527;52.414;13.226;2022-09-09T05:12:24;2.92;;;1.30;;
64208;SDS011;50527;52.414;13.226;2022-09-09T05:14:50;1.75;;;1.20;;
64208;SDS011;50527;52.414;13.226;2022-09-09T05:17:16;4.55;;;1.30;;
64208;SDS011;50527;52.414;13.226;2022-09-09T05:19:42;2.65;;;1.42;;
64208;SDS011;50527;52.414;13.226;2022-09-09T05:22:08;1.92;;;1.10;;
64208;SDS011;50527;52.414;13.226;2022-09-09T05:24:34;3.70;;;1.20;;
64208;SDS011;50527;52.414;13.226;2022-09-09T05:27:01;2.20;;;1.20;;
64208;SDS011;50527;52.414;13.226;2022-09-09T05:29:27;4.38;;;1.52;;
64208;SDS011;50527;52.414;13.226;2022-09-09T05:31:53;4.70;;;1.58;;
64208;SDS011;50527;52.414;13.226;2022-09-09T05:34:19;5.40;;;1.20;;
64208;SDS011;50527;52.414;13.226;2022-09-09T05:36:46;3.65;;;1.17;;
64208;SDS011;50527;52.414;13.226;2022-09-09T05:39:12;1.20;;;0.88;;
64208;SDS011;50527;52.414;13.226;2022-09-09T05:41:37;4.13;;;0.85;;
64208;SDS011;50527;52.414;13.226;2022-09-09T05:44:03;1.55;;;0.80;;
64208;SDS011;50527;52.414;13.226;2022-09-09T05:46:29;3.50;;;0.80;;
64208;SDS011;50527;52.414;13.226;2022-09-09T05:48:55;3.20;;;0.63;;
64208;SDS011;50527;52.414;13.226;2022-09-09T05:51:24;0.98;;;0.60;;
64208;SDS011;50527;52.414;13.226;2022-09-09T05:53:51;1.73;;;0.70;;
64208;SDS011;50527;52.414;13.226;2022-09-09T05:56:19;5.38;;;0.63;;
64208;SDS011;50527;52.414;13.226;2022-09-09T05:58:46;1.52;;;0.65;;
64208;SDS011;50527;52.414;13.226;2022-09-09T06:01:17;3.72;;;1.05;;
64208;SDS011;50527;52.414;13.226;2022-09-09T06:03:44;1.60;;;0.70;;
64208;SDS011;50527;52.414;13.226;2022-09-09T06:06:11;6.35;;;0.80;;
64208;SDS011;50527;52.414;13.226;2022-09-09T06:08:43;2.13;;;0.85;;
64208;SDS011;50527;52.414;13.226;2022-09-09T06:13:36;4.63;;;0.80;;
64208;SDS011;50527;52.414;13.226;2022-09-09T06:16:03;1.45;;;0.80;;
64208;SDS011;50527;52.414;13.226;2022-09-09T06:18:30;2.00;;;0.80;;
64208;SDS011;50527;52.414;13.226;2022-09-09T06:23:29;2.38;;;0.70;;
64208;SDS011;50527;52.414;13.226;2022-09-09T06:28:52;3.60;;;0.60;;
64208;SDS011;50527;52.414;13.226;2022-09-09T06:31:20;4.20;;;0.88;;
64208;SDS011;50527;52.414;13.226;2022-09-09T06:33:47;2.85;;;0.77;;
64208;SDS011;50527;52.414;13.226;2022-09-09T06:36:15;1.35;;;0.70;;
64208;SDS011;50527;52.414;13.226;2022-09-09T06:38:48;1.95;;;0.80;;
64208;SDS011;50527;52.414;13.226;2022-09-09T06:41:15;3.00;;;0.70;;
64208;SDS011;50527;52.414;13.226;2022-09-09T06:43:43;2.42;;;0.70;;
64208;SDS011;50527;52.414;13.226;2022-09-09T06:46:19;1.42;;;0.63;;
64208;SDS011;50527;52.414;13.226;2022-09-09T06:48:48;1.27;;;0.57;;
64208;SDS011;50527;52.414;13.226;2022-09-09T06:51:18;1.33;;;0.57;;
64208;SDS011;50527;52.414;13.226;2022-09-09T06:53:52;2.22;;;0.65;;
64208;SDS011;50527;52.414;13.226;2022-09-09T06:56:20;3.50;;;0.55;;
64208;SDS011;50527;52.414;13.226;2022-09-09T06:58:51;4.15;;;0.73;;
64208;SDS011;50527;52.414;13.226;2022-09-09T07:01:19;2.13;;;0.57;;
64208;SDS011;50527;52.414;13.226;2022-09-09T07:03:47;1.42;;;0.50;;
64208;SDS011;50527;52.414;13.226;2022-09-09T07:06:18;2.25;;;0.80;;
64208;SDS011;50527;52.414;13.226;2022-09-09T07:08:51;4.03;;;0.70;;
64208;SDS011;50527;52.414;13.226;2022-09-09T07:11:19;2.00;;;0.70;;
64208;SDS011;50527;52.414;13.226;2022-09-09T07:13:46;1.02;;;0.50;;
64208;SDS011;50527;52.414;13.226;2022-09-09T07:16:13;1.55;;;0.60;;
64208;SDS011;50527;52.414;13.226;2022-09-09T07:18:40;3.30;;;0.40;;
64208;SDS011;50527;52.414;13.226;2022-09-09T07:21:06;2.03;;;0.60;;
64208;SDS011;50527;52.414;13.226;2022-09-09T07:23:33;2.80;;;0.63;;
64208;SDS011;50527;52.414;13.226;2022-09-09T07:26:00;1.05;;;0.50;;
64208;SDS011;50527;52.414;13.226;2022-09-09T07:28:26;1.05;;;0.40;;
64208;SDS011;50527;52.414;13.226;2022-09-09T07:31:00;4.05;;;0.52;;
64208;SDS011;50527;52.414;13.226;2022-09-09T07:33:30;2.05;;;0.60;;
64208;SDS011;50527;52.414;13.226;2022-09-09T07:36:08;4.85;;;0.40;;
64208;SDS011;50527;52.414;13.226;2022-09-09T07:38:43;1.25;;;0.40;;
64208;SDS011;50527;52.414;13.226;2022-09-09T07:41:11;4.03;;;0.40;;
64208;SDS011;50527;52.414;13.226;2022-09-09T07:43:42;1.63;;;0.40;;
64208;SDS011;50527;52.414;13.226;2022-09-09T07:46:09;2.47;;;0.50;;
64208;SDS011;50527;52.414;13.226;2022-09-09T07:48:36;2.40;;;0.50;;
64208;SDS011;50527;52.414;13.226;2022-09-09T07:51:10;5.45;;;0.60;;
64208;SDS011;50527;52.414;13.226;2022-09-09T07:53:42;0.70;;;0.25;;
64208;SDS011;50527;52.414;13.226;2022-09-09T07:56:09;1.55;;;0.35;;
64208;SDS011;50527;52.414;13.226;2022-09-09T07:58:37;1.83;;;0.50;;
64208;SDS011;50527;52.414;13.226;2022-09-09T08:01:07;5.60;;;0.50;;
64208;SDS011;50527;52.414;13.226;2022-09-09T08:03:34;0.88;;;0.22;;
64208;SDS011;50527;52.414;13.226;2022-09-09T08:06:01;2.47;;;0.38;;
64208;SDS011;50527;52.414;13.226;2022-09-09T08:08:28;1.58;;;0.32;;
64208;SDS011;50527;52.414;13.226;2022-09-09T08:11:00;2.53;;;0.50;;
64208;SDS011;50527;52.414;13.226;2022-09-09T08:13:27;2.42;;;0.35;;
64208;SDS011;50527;52.414;13.226;2022-09-09T08:15:52;4.28;;;0.43;;
64208;SDS011;50527;52.414;13.226;2022-09-09T08:18:18;2.95;;;0.45;;
64208;SDS011;50527;52.414;13.226;2022-09-09T08:20:43;3.80;;;0.60;;
64208;SDS011;50527;52.414;13.226;2022-09-09T08:23:09;3.58;;;0.50;;
64208;SDS011;50527;52.414;13.226;2022-09-09T08:25:34;1.60;;;0.40;;
64208;SDS011;50527;52.414;13.226;2022-09-09T08:28:00;1.67;;;0.50;;
64208;SDS011;50527;52.414;13.226;2022-09-09T08:30:25;3.90;;;0.43;;
64208;SDS011;50527;52.414;13.226;2022-09-09T08:32:51;2.15;;;0.40;;
64208;SDS011;50527;52.414;13.226;2022-09-09T08:35:17;2.45;;;0.55;;
64208;SDS011;50527;52.414;13.226;2022-09-09T08:37:42;0.60;;;0.25;;
64208;SDS011;50527;52.414;13.226;2022-09-09T08:40:09;3.55;;;0.50;;
64208;SDS011;50527;52.414;13.226;2022-09-09T08:42:47;3.00;;;0.63;;
64208;SDS011;50527;52.414;13.226;2022-09-09T08:47:54;2.13;;;0.55;;
64208;SDS011;50527;52.414;13.226;2022-09-09T08:50:41;5.78;;;0.70;;
64208;SDS011;50527;52.414;13.226;2022-09-09T08:55:44;2.17;;;0.45;;
64208;SDS011;50527;52.414;13.226;2022-09-09T08:58:25;1.02;;;0.30;;
64208;SDS011;50527;52.414;13.226;2022-09-09T09:11:53;3.20;;;0.55;;
64208;SDS011;50527;52.414;13.226;2022-09-09T09:14:23;1.70;;;0.35;;
64208;SDS011;50527;52.414;13.226;2022-09-09T09:19:39;2.95;;;0.45;;
64208;SDS011;50527;52.414;13.226;2022-09-09T09:22:10;2.58;;;0.20;;
64208;SDS011;50527;52.414;13.226;2022-09-09T09:24:43;0.60;;;0.20;;
64208;SDS011;50527;52.414;13.226;2022-09-09T09:29:59;0.93;;;0.20;;
64208;SDS011;50527;52.414;13.226;2022-09-09T09:32:28;2.95;;;0.50;;
64208;SDS011;50527;52.414;13.226;2022-09-09T09:34:58;1.88;;;0.28;;
64208;SDS011;50527;52.414;13.226;2022-09-09T09:37:30;1.85;;;0.30;;
64208;SDS011;50527;52.414;13.226;2022-09-09T09:40:13;2.22;;;0.40;;
64208;SDS011;50527;52.414;13.226;2022-09-09T09:42:51;3.70;;;0.30;;
64208;SDS011;50527;52.414;13.226;2022-09-09T09:48:13;4.05;;;0.45;;
64208;SDS011;50527;52.414;13.226;2022-09-09T09:50:49;1.23;;;0.17;;
64208;SDS011;50527;52.414;13.226;2022-09-09T09:53:20;1.77;;;0.28;;
64208;SDS011;50527;52.414;13.226;2022-09-09T09:55:59;3.30;;;0.45;;
64208;SDS011;50527;52.414;13.226;2022-09-09T09:58:33;3.95;;;0.30;;
64208;SDS011;50527;52.414;13.226;2022-09-09T10:04:19;3.95;;;0.47;;
64208;SDS011;50527;52.414;13.226;2022-09-09T10:06:46;4.85;;;0.30;;
64208;SDS011;50527;52.414;13.226;2022-09-09T10:09:28;5.30;;;0.50;;
64208;SDS011;50527;52.414;13.226;2022-09-09T10:12:03;5.40;;;0.65;;
64208;SDS011;50527;52.414;13.226;2022-09-09T10:14:48;1.95;;;0.28;;
64208;SDS011;50527;52.414;13.226;2022-09-09T10:17:26;1.33;;;0.25;;
64208;SDS011;50527;52.414;13.226;2022-09-09T10:22:35;3.30;;;0.32;;
64208;SDS011;50527;52.414;13.226;2022-09-09T10:25:08;1.27;;;0.28;;
64208;SDS011;50527;52.414;13.226;2022-09-09T10:28:11;1.23;;;0.40;;
64208;SDS011;50527;52.414;13.226;2022-09-09T10:31:04;2.15;;;0.30;;
64208;SDS011;50527;52.414;13.226;2022-09-09T10:33:57;4.77;;;0.30;;
64208;SDS011;50527;52.414;13.226;2022-09-09T10:36:28;4.10;;;0.30;;
64208;SDS011;50527;52.414;13.226;2022-09-09T10:39:04;4.20;;;0.40;;
64208;SDS011;50527;52.414;13.226;2022-09-09T10:41:44;1.38;;;0.30;;
64208;SDS011;50527;52.414;13.226;2022-09-09T10:47:42;2.58;;;0.30;;
64208;SDS011;50527;52.414;13.226;2022-09-09T10:53:13;1.23;;;0.32;;
64208;SDS011;50527;52.414;13.226;2022-09-09T10:55:59;3.10;;;0.20;;
64208;SDS011;50527;52.414;13.226;2022-09-09T11:01:27;1.55;;;0.30;;
64208;SDS011;50527;52.414;13.226;2022-09-09T11:03:57;1.40;;;0.20;;
64208;SDS011;50527;52.414;13.226;2022-09-09T11:06:30;1.20;;;0.30;;
64208;SDS011;50527;52.414;13.226;2022-09-09T11:09:00;3.67;;;0.47;;
64208;SDS011;50527;52.414;13.226;2022-09-09T11:11:34;2.03;;;0.25;;
64208;SDS011;50527;52.414;13.226;2022-09-09T11:14:32;4.07;;;0.20;;
64208;SDS011;50527;52.414;13.226;2022-09-09T11:19:34;1.83;;;0.20;;
64208;SDS011;50527;52.414;13.226;2022-09-09T11:22:01;1.60;;;0.30;;
64208;SDS011;50527;52.414;13.226;2022-09-09T11:24:39;2.70;;;0.40;;
64208;SDS011;50527;52.414;13.226;2022-09-09T11:27:14;5.47;;;0.20;;
64208;SDS011;50527;52.414;13.226;2022-09-09T11:29:56;1.90;;;0.30;;
64208;SDS011;50527;52.414;13.226;2022-09-09T11:32:51;1.45;;;0.10;;
64208;SDS011;50527;52.414;13.226;2022-09-09T11:35:58;1.67;;;0.28;;
64208;SDS011;50527;52.414;13.226;2022-09-09T11:38:53;6.25;;;0.35;;
64208;SDS011;50527;52.414;13.226;2022-09-09T11:41:32;1.20;;;0.10;;
64208;SDS011;50527;52.414;13.226;2022-09-09T11:44:08;2.25;;;0.30;;
64208;SDS011;50527;52.414;13.226;2022-09-09T11:46:36;3.30;;;0.22;;
64208;SDS011;50527;52.414;13.226;2022-09-09T11:49:04;0.85;;;0.15;;
64208;SDS011;50527;52.414;13.226;2022-09-09T11:51:32;2.72;;;0.22;;
64208;SDS011;50527;52.414;13.226;2022-09-09T11:54:28;1.75;;;0.20;;
64208;SDS011;50527;52.414;13.226;2022-09-09T11:56:54;2.05;;;0.20;;
64208;SDS011;50527;52.414;13.226;2022-09-09T11:59:21;0.82;;;0.10;;
64208;SDS011;50527;52.414;13.226;2022-09-09T12:06:50;3.28;;;0.20;;
64208;SDS011;50527;52.414;13.226;2022-09-09T12:09:56;1.33;;;0.20;;
64208;SDS011;50527;52.414;13.226;2022-09-09T12:12:21;2.05;;;0.30;;
64208;SDS011;50527;52.414;13.226;2022-09-09T12:18:06;0.73;;;0.20;;
64208;SDS011;50527;52.414;13.226;2022-09-09T12:23:13;2.00;;;0.30;;
64208;SDS011;50527;52.414;13.226;2022-09-09T12:25:53;1.33;;;0.20;;
64208;SDS011;50527;52.414;13.226;2022-09-09T12:28:40;2.97;;;0.28;;
64208;SDS011;50527;52.414;13.226;2022-09-09T12:31:22;2.10;;;0.30;;
64208;SDS011;50527;52.414;13.226;2022-09-09T12:33:49;0.45;;;0.10;;
64208;SDS011;50527;52.414;13.226;2022-09-09T12:36:21;3.30;;;0.20;;
64208;SDS011;50527;52.414;13.226;2022-09-09T12:38:54;3.63;;;0.20;;
64208;SDS011;50527;52.414;13.226;2022-09-09T12:41:26;2.47;;;0.20;;
64208;SDS011;50527;52.414;13.226;2022-09-09T12:44:06;5.00;;;0.30;;
64208;SDS011;50527;52.414;13.226;2022-09-09T12:46:39;3.08;;;0.30;;
64208;SDS011;50527;52.414;13.226;2022-09-09T12:52:08;0.65;;;0.20;;
64208;SDS011;50527;52.414;13.226;2022-09-09T12:54:43;4.93;;;0.40;;
64208;SDS011;50527;52.414;13.226;2022-09-09T12:57:11;5.80;;;0.40;;
64208;SDS011;50527;52.414;13.226;2022-09-09T12:59:39;4.72;;;0.25;;
64208;SDS011;50527;52.414;13.226;2022-09-09T13:02:20;3.75;;;0.22;;
64208;SDS011;50527;52.414;13.226;2022-09-09T13:04:47;2.97;;;0.30;;
64208;SDS011;50527;52.414;13.226;2022-09-09T13:07:15;0.80;;;0.10;;
64208;SDS011;50527;52.414;13.226;2022-09-09T13:09:41;1.45;;;0.20;;
64208;SDS011;50527;52.414;13.226;2022-09-09T13:12:16;2.97;;;0.30;;
64208;SDS011;50527;52.414;13.226;2022-09-09T13:14:46;0.85;;;0.17;;
64208;SDS011;50527;52.414;13.226;2022-09-09T13:17:19;2.55;;;0.30;;
64208;SDS011;50527;52.414;13.226;2022-09-09T13:19:55;4.20;;;0.30;;
64208;SDS011;50527;52.414;13.226;2022-09-09T13:22:39;3.67;;;0.30;;
64208;SDS011;50527;52.414;13.226;2022-09-09T13:25:13;3.80;;;0.28;;
64208;SDS011;50527;52.414;13.226;2022-09-09T13:27:50;2.75;;;0.20;;
64208;SDS011;50527;52.414;13.226;2022-09-09T13:30:30;2.45;;;0.30;;
64208;SDS011;50527;52.414;13.226;2022-09-09T13:35:55;1.60;;;0.22;;
64208;SDS011;50527;52.414;13.226;2022-09-09T13:38:23;0.65;;;0.20;;
64208;SDS011;50527;52.414;13.226;2022-09-09T13:41:08;2.92;;;0.22;;
64208;SDS011;50527;52.414;13.226;2022-09-09T13:43:43;1.35;;;0.30;;
64208;SDS011;50527;52.414;13.226;2022-09-09T13:49:42;1.55;;;0.22;;
64208;SDS011;50527;52.414;13.226;2022-09-09T13:51:51;2.10;;;0.22;;
64208;SDS011;50527;52.414;13.226;2022-09-09T13:54:32;1.05;;;0.20;;
64208;SDS011;50527;52.414;13.226;2022-09-09T13:56:58;3.38;;;0.30;;
64208;SDS011;50527;52.414;13.226;2022-09-09T13:59:23;2.38;;;0.45;;
64208;SDS011;50527;52.414;13.226;2022-09-09T14:01:49;2.88;;;0.20;;
64208;SDS011;50527;52.414;13.226;2022-09-09T14:04:15;11.10;;;0.32;;
64208;SDS011;50527;52.414;13.226;2022-09-09T14:06:40;2.45;;;0.45;;
64208;SDS011;50527;52.414;13.226;2022-09-09T14:09:10;0.85;;;0.20;;
64208;SDS011;50527;52.414;13.226;2022-09-09T14:11:38;3.40;;;0.30;;
64208;SDS011;50527;52.414;13.226;2022-09-09T14:14:03;2.00;;;0.30;;
64208;SDS011;50527;52.414;13.226;2022-09-09T14:16:30;1.85;;;0.20;;
64208;SDS011;50527;52.414;13.226;2022-09-09T14:18:55;5.07;;;0.40;;
64208;SDS011;50527;52.414;13.226;2022-09-09T14:21:22;1.63;;;0.30;;
64208;SDS011;50527;52.414;13.226;2022-09-09T14:23:48;2.92;;;0.20;;
64208;SDS011;50527;52.414;13.226;2022-09-09T14:26:13;2.83;;;0.20;;
64208;SDS011;50527;52.414;13.226;2022-09-09T14:28:39;3.13;;;0.28;;
64208;SDS011;50527;52.414;13.226;2022-09-09T14:31:05;3.95;;;0.30;;
64208;SDS011;50527;52.414;13.226;2022-09-09T14:33:32;2.28;;;0.17;;
64208;SDS011;50527;52.414;13.226;2022-09-09T14:36:01;1.45;;;0.20;;
64208;SDS011;50527;52.414;13.226;2022-09-09T14:38:28;2.17;;;0.32;;
64208;SDS011;50527;52.414;13.226;2022-09-09T14:40:59;2.95;;;0.20;;
64208;SDS011;50527;52.414;13.226;2022-09-09T14:43:27;1.77;;;0.30;;
64208;SDS011;50527;52.414;13.226;2022-09-09T14:45:52;1.30;;;0.20;;
64208;SDS011;50527;52.414;13.226;2022-09-09T14:48:18;3.05;;;0.30;;
64208;SDS011;50527;52.414;13.226;2022-09-09T14:50:44;1.95;;;0.30;;
64208;SDS011;50527;52.414;13.226;2022-09-09T14:53:09;2.97;;;0.30;;
64208;SDS011;50527;52.414;13.226;2022-09-09T14:55:35;1.27;;;0.13;;
64208;SDS011;50527;52.414;13.226;2022-09-09T14:58:01;2.13;;;0.13;;
64208;SDS011;50527;52.414;13.226;2022-09-09T15:00:28;3.28;;;0.20;;
64208;SDS011;50527;52.414;13.226;2022-09-09T15:02:53;3.15;;;0.13;;
64208;SDS011;50527;52.414;13.226;2022-09-09T15:05:20;2.53;;;0.40;;
64208;SDS011;50527;52.414;13.226;2022-09-09T15:07:45;2.40;;;0.30;;
64208;SDS011;50527;52.414;13.226;2022-09-09T15:10:13;2.20;;;0.30;;
64208;SDS011;50527;52.414;13.226;2022-09-09T15:12:39;2.25;;;0.20;;
64208;SDS011;50527;52.414;13.226;2022-09-09T15:15:04;1.90;;;0.20;;
64208;SDS011;50527;52.414;13.226;2022-09-09T15:17:30;3.97;;;0.40;;
64208;SDS011;50527;52.414;13.226;2022-09-09T15:19:56;0.85;;;0.35;;
64208;SDS011;50527;52.414;13.226;2022-09-09T15:22:22;3.88;;;0.73;;
64208;SDS011;50527;52.414;13.226;2022-09-09T15:24:49;2.17;;;0.38;;
64208;SDS011;50527;52.414;13.226;2022-09-09T15:27:14;2.05;;;0.15;;
64208;SDS011;50527;52.414;13.226;2022-09-09T15:29:40;3.00;;;0.40;;
64208;SDS011;50527;52.414;13.226;2022-09-09T15:32:06;1.67;;;0.30;;
64208;SDS011;50527;52.414;13.226;2022-09-09T15:34:33;2.90;;;0.30;;
64208;SDS011;50527;52.414;13.226;2022-09-09T15:36:58;1.02;;;0.50;;
64208;SDS011;50527;52.414;13.226;2022-09-09T15:39:24;2.30;;;0.20;;
64208;SDS011;50527;52.414;13.226;2022-09-09T15:41:50;3.20;;;0.28;;
64208;SDS011;50527;52.414;13.226;2022-09-09T15:44:16;0.90;;;0.20;;
64208;SDS011;50527;52.414;13.226;2022-09-09T15:46:50;1.83;;;0.30;;
64208;SDS011;50527;52.414;13.226;2022-09-09T15:49:19;1.48;;;0.25;;
64208;SDS011;50527;52.414;13.226;2022-09-09T15:51:54;1.37;;;0.30;;
64208;SDS011;50527;52.414;13.226;2022-09-09T15:54:21;2.85;;;0.40;;
64208;SDS011;50527;52.414;13.226;2022-09-09T15:56:51;1.73;;;0.30;;
64208;SDS011;50527;52.414;13.226;2022-09-09T15:59:22;2.35;;;0.30;;
64208;SDS011;50527;52.414;13.226;2022-09-09T16:01:48;2.97;;;0.30;;
64208;SDS011;50527;52.414;13.226;2022-09-09T16:04:16;1.30;;;0.30;;
64208;SDS011;50527;52.414;13.226;2022-09-09T16:06:48;1.58;;;0.20;;
64208;SDS011;50527;52.414;13.226;2022-09-09T16:09:23;5.05;;;0.30;;
64208;SDS011;50527;52.414;13.226;2022-09-09T16:11:49;1.70;;;0.20;;
64208;SDS011;50527;52.414;13.226;2022-09-09T16:14:14;2.13;;;0.30;;
64208;SDS011;50527;52.414;13.226;2022-09-09T16:16:40;1.25;;;0.15;;
64208;SDS011;50527;52.414;13.226;2022-09-09T16:19:07;1.63;;;0.40;;
64208;SDS011;50527;52.414;13.226;2022-09-09T16:21:44;3.15;;;0.20;;
64208;SDS011;50527;52.414;13.226;2022-09-09T16:24:12;2.30;;;0.32;;
64208;SDS011;50527;52.414;13.226;2022-09-09T16:26:41;3.10;;;0.43;;
64208;SDS011;50527;52.414;13.226;2022-09-09T16:29:10;4.35;;;0.43;;
64208;SDS011;50527;52.414;13.226;2022-09-09T16:31:36;2.20;;;0.28;;
64208;SDS011;50527;52.414;13.226;2022-09-09T16:34:02;2.10;;;0.30;;
64208;SDS011;50527;52.414;13.226;2022-09-09T16:36:29;2.55;;;0.22;;
64208;SDS011;50527;52.414;13.226;2022-09-09T16:38:59;1.23;;;0.20;;